Hauptseite
METAR-TAF:

METAR-TAF

Flughäfen :

Flugplatz Oberpfaffenhofen

Oberpfaffenhofen, Deutschland

Breite: 48-05N, Länge: 011-17E, Höhe: 600 m

Beobachtung

Neuester Wetterbericht von vor 42 Minuten, um 01:50 UTC
Windstille
Temperatur 15°C
Luftfeuchtigkeit 100%
Luftdruck 1012 hPa
Sichtweite 10 km oder mehr

METAR: EDMO 250150Z AUTO 00000KT 9999 // BKN092/// OVC110/// 15/15 Q1012

Zeit: 04:32 (02:32 UTC)

Prognose

Neuester Wetterbericht von vor 9 Stunden und 32 Minuten, um 17:00 UTC
Gültige Prognose vom 23 um 18 UTC bis 24 um 03 UTC
Wind 3 kt aus unterschiedlichen Richtungen
Sichtweite 10 km oder mehr
keine Wolken unter 1500 m und keine Kumulonimbus oder Gewitterwolken

TAF: EDMO 231700Z 2318/2403 VRB03KT CAVOK

Wetterbeobachtungen und Prognosen von mehr als 4000 Flughäfen (METAR und TAF Bericht).

Die verfügbaren Stationen werden durch gelbe und rote Markierungen auf der Karte dargestellt.

Führen Sie die Maus auf sie, um den Namen der Station zu sehen.

Darauf klicken, um die Beobachtung von Wetterbeobachtungen und Prognosen zu sehen.

Um die Karte zu ändern : klicken Sie auf den grünen Tasten mit einem schwarzen Kreuz Zum Vergrößern, auf den grünen Button mit einem Gedankenstrich zu verkleinern, oder auf die grünen Pfeile für benachbarte Karten.


METAR-TAF: